sensor_id;sensor_type;location;lat;lon;timestamp;temperature;humidity
75961;SHT30;64644;48.914;2.254;2023-02-03T00:00:48;11.72;65.40
75961;SHT30;64644;48.914;2.254;2023-02-03T00:03:13;11.71;65.39
75961;SHT30;64644;48.914;2.254;2023-02-03T00:05:39;11.68;65.35
75961;SHT30;64644;48.914;2.254;2023-02-03T00:08:06;11.67;65.62
75961;SHT30;64644;48.914;2.254;2023-02-03T00:10:33;11.64;65.40
75961;SHT30;64644;48.914;2.254;2023-02-03T00:12:59;11.62;65.45
75961;SHT30;64644;48.914;2.254;2023-02-03T00:15:25;11.59;65.58
75961;SHT30;64644;48.914;2.254;2023-02-03T00:17:51;11.61;65.53
75961;SHT30;64644;48.914;2.254;2023-02-03T00:20:17;11.65;65.53
75961;SHT30;64644;48.914;2.254;2023-02-03T00:22:42;11.62;65.96
75961;SHT30;64644;48.914;2.254;2023-02-03T00:25:07;11.59;65.84
75961;SHT30;64644;48.914;2.254;2023-02-03T00:27:33;11.62;65.82
75961;SHT30;64644;48.914;2.254;2023-02-03T00:29:59;11.59;65.91
75961;SHT30;64644;48.914;2.254;2023-02-03T00:32:24;11.55;66.04
75961;SHT30;64644;48.914;2.254;2023-02-03T00:34:49;11.52;66.29
75961;SHT30;64644;48.914;2.254;2023-02-03T00:37:15;11.50;66.11
75961;SHT30;64644;48.914;2.254;2023-02-03T00:39:40;11.51;66.14
75961;SHT30;64644;48.914;2.254;2023-02-03T00:42:06;11.52;66.05
75961;SHT30;64644;48.914;2.254;2023-02-03T00:44:31;11.52;66.27
75961;SHT30;64644;48.914;2.254;2023-02-03T00:46:57;11.50;66.35
75961;SHT30;64644;48.914;2.254;2023-02-03T00:49:22;11.52;66.17
75961;SHT30;64644;48.914;2.254;2023-02-03T00:51:48;11.50;66.11
75961;SHT30;64644;48.914;2.254;2023-02-03T00:54:13;11.52;66.16
75961;SHT30;64644;48.914;2.254;2023-02-03T00:56:39;11.48;66.11
75961;SHT30;64644;48.914;2.254;2023-02-03T00:59:05;11.48;66.05
75961;SHT30;64644;48.914;2.254;2023-02-03T01:01:31;11.44;66.15
75961;SHT30;64644;48.914;2.254;2023-02-03T01:03:56;11.47;66.06
75961;SHT30;64644;48.914;2.254;2023-02-03T01:06:22;11.44;66.00
75961;SHT30;64644;48.914;2.254;2023-02-03T01:08:48;11.45;65.98
75961;SHT30;64644;48.914;2.254;2023-02-03T01:11:19;11.44;66.20
75961;SHT30;64644;48.914;2.254;2023-02-03T01:13:45;11.41;66.07
75961;SHT30;64644;48.914;2.254;2023-02-03T01:16:13;11.44;66.13
75961;SHT30;64644;48.914;2.254;2023-02-03T01:18:39;11.40;66.17
75961;SHT30;64644;48.914;2.254;2023-02-03T01:21:10;11.40;66.26
75961;SHT30;64644;48.914;2.254;2023-02-03T01:23:37;11.40;66.29
75961;SHT30;64644;48.914;2.254;2023-02-03T01:26:04;11.42;66.33
75961;SHT30;64644;48.914;2.254;2023-02-03T01:28:30;11.40;66.44
75961;SHT30;64644;48.914;2.254;2023-02-03T01:30:55;11.37;66.40
75961;SHT30;64644;48.914;2.254;2023-02-03T01:33:20;11.33;66.40
75961;SHT30;64644;48.914;2.254;2023-02-03T01:35:46;11.37;66.55
75961;SHT30;64644;48.914;2.254;2023-02-03T01:38:11;11.31;66.65
75961;SHT30;64644;48.914;2.254;2023-02-03T01:40:43;11.33;66.99
75961;SHT30;64644;48.914;2.254;2023-02-03T01:43:09;11.28;66.67
75961;SHT30;64644;48.914;2.254;2023-02-03T01:45:35;11.27;66.65
75961;SHT30;64644;48.914;2.254;2023-02-03T01:48:01;11.30;66.71
75961;SHT30;64644;48.914;2.254;2023-02-03T01:50:30;11.28;66.60
75961;SHT30;64644;48.914;2.254;2023-02-03T01:53:02;11.28;66.41
75961;SHT30;64644;48.914;2.254;2023-02-03T01:55:33;11.22;66.51
75961;SHT30;64644;48.914;2.254;2023-02-03T01:58:03;11.20;66.55
75961;SHT30;64644;48.914;2.254;2023-02-03T02:00:30;11.12;66.61
75961;SHT30;64644;48.914;2.254;2023-02-03T02:02:57;11.07;66.46
75961;SHT30;64644;48.914;2.254;2023-02-03T02:05:28;11.03;66.52
75961;SHT30;64644;48.914;2.254;2023-02-03T02:07:57;11.03;66.29
75961;SHT30;64644;48.914;2.254;2023-02-03T02:10:24;11.00;66.32
75961;SHT30;64644;48.914;2.254;2023-02-03T02:12:51;11.00;66.33
75961;SHT30;64644;48.914;2.254;2023-02-03T02:15:21;11.02;66.12
75961;SHT30;64644;48.914;2.254;2023-02-03T02:18:04;11.03;65.87
75961;SHT30;64644;48.914;2.254;2023-02-03T02:37:23;11.00;65.16
75961;SHT30;64644;48.914;2.254;2023-02-03T02:40:13;11.00;65.28
75961;SHT30;64644;48.914;2.254;2023-02-03T02:43:04;11.02;65.24
75961;SHT30;64644;48.914;2.254;2023-02-03T02:45:53;11.02;65.27
75961;SHT30;64644;48.914;2.254;2023-02-03T02:48:43;11.02;64.80
75961;SHT30;64644;48.914;2.254;2023-02-03T02:51:13;10.97;64.90
75961;SHT30;64644;48.914;2.254;2023-02-03T02:53:43;10.95;64.98
75961;SHT30;64644;48.914;2.254;2023-02-03T02:56:12;10.93;65.02
75961;SHT30;64644;48.914;2.254;2023-02-03T02:58:41;10.93;65.07
75961;SHT30;64644;48.914;2.254;2023-02-03T03:01:08;10.95;65.23
75961;SHT30;64644;48.914;2.254;2023-02-03T03:03:34;10.99;65.46
75961;SHT30;64644;48.914;2.254;2023-02-03T03:06:07;11.05;64.84
75961;SHT30;64644;48.914;2.254;2023-02-03T03:08:42;11.06;65.04
75961;SHT30;64644;48.914;2.254;2023-02-03T03:11:09;11.09;65.22
75961;SHT30;64644;48.914;2.254;2023-02-03T03:13:40;11.07;65.05
75961;SHT30;64644;48.914;2.254;2023-02-03T03:16:08;11.09;64.98
75961;SHT30;64644;48.914;2.254;2023-02-03T03:18:38;11.07;64.99
75961;SHT30;64644;48.914;2.254;2023-02-03T03:21:11;11.13;64.85
75961;SHT30;64644;48.914;2.254;2023-02-03T03:23:39;11.14;64.71
75961;SHT30;64644;48.914;2.254;2023-02-03T03:26:33;11.14;64.58
75961;SHT30;64644;48.914;2.254;2023-02-03T03:29:06;11.16;64.81
75961;SHT30;64644;48.914;2.254;2023-02-03T03:31:34;11.23;65.38
75961;SHT30;64644;48.914;2.254;2023-02-03T03:34:00;11.27;65.14
75961;SHT30;64644;48.914;2.254;2023-02-03T03:42:11;11.31;64.95
75961;SHT30;64644;48.914;2.254;2023-02-03T03:44:46;11.33;64.39
75961;SHT30;64644;48.914;2.254;2023-02-03T03:47:27;11.34;64.39
75961;SHT30;64644;48.914;2.254;2023-02-03T03:49:56;11.31;64.78
75961;SHT30;64644;48.914;2.254;2023-02-03T03:52:28;11.33;64.38
75961;SHT30;64644;48.914;2.254;2023-02-03T03:54:56;11.34;64.28
75961;SHT30;64644;48.914;2.254;2023-02-03T03:57:25;11.33;64.60
75961;SHT30;64644;48.914;2.254;2023-02-03T03:59:53;11.33;64.29
75961;SHT30;64644;48.914;2.254;2023-02-03T04:02:20;11.31;64.55
75961;SHT30;64644;48.914;2.254;2023-02-03T04:04:47;11.31;64.66
75961;SHT30;64644;48.914;2.254;2023-02-03T04:07:14;11.33;64.67
75961;SHT30;64644;48.914;2.254;2023-02-03T04:09:40;11.34;64.34
75961;SHT30;64644;48.914;2.254;2023-02-03T04:12:19;11.33;64.57
75961;SHT30;64644;48.914;2.254;2023-02-03T04:14:46;11.33;64.62
75961;SHT30;64644;48.914;2.254;2023-02-03T04:17:11;11.34;64.52
75961;SHT30;64644;48.914;2.254;2023-02-03T04:19:37;11.35;64.69
75961;SHT30;64644;48.914;2.254;2023-02-03T04:22:02;11.37;64.47
75961;SHT30;64644;48.914;2.254;2023-02-03T04:24:28;11.37;64.56
75961;SHT30;64644;48.914;2.254;2023-02-03T04:26:53;11.34;64.62
75961;SHT30;64644;48.914;2.254;2023-02-03T04:29:19;11.30;64.74
75961;SHT30;64644;48.914;2.254;2023-02-03T04:31:44;11.26;64.73
75961;SHT30;64644;48.914;2.254;2023-02-03T04:34:09;11.19;64.99
75961;SHT30;64644;48.914;2.254;2023-02-03T04:36:35;11.12;65.43
75961;SHT30;64644;48.914;2.254;2023-02-03T04:39:00;11.09;65.65
75961;SHT30;64644;48.914;2.254;2023-02-03T04:41:26;11.07;65.81
75961;SHT30;64644;48.914;2.254;2023-02-03T04:43:51;11.06;65.98
75961;SHT30;64644;48.914;2.254;2023-02-03T04:46:16;10.99;66.23
75961;SHT30;64644;48.914;2.254;2023-02-03T04:48:43;10.96;66.33
75961;SHT30;64644;48.914;2.254;2023-02-03T04:51:08;10.91;66.07
75961;SHT30;64644;48.914;2.254;2023-02-03T04:53:34;10.88;66.17
75961;SHT30;64644;48.914;2.254;2023-02-03T04:55:59;10.80;66.10
75961;SHT30;64644;48.914;2.254;2023-02-03T04:58:25;10.73;66.31
75961;SHT30;64644;48.914;2.254;2023-02-03T05:00:51;10.68;66.38
75961;SHT30;64644;48.914;2.254;2023-02-03T05:03:17;10.67;66.30
75961;SHT30;64644;48.914;2.254;2023-02-03T05:05:42;10.68;66.44
75961;SHT30;64644;48.914;2.254;2023-02-03T05:08:08;10.67;66.50
75961;SHT30;64644;48.914;2.254;2023-02-03T05:10:33;10.68;66.37
75961;SHT30;64644;48.914;2.254;2023-02-03T05:12:59;10.64;66.51
75961;SHT30;64644;48.914;2.254;2023-02-03T05:15:24;10.65;66.64
75961;SHT30;64644;48.914;2.254;2023-02-03T05:17:54;10.72;66.40
75961;SHT30;64644;48.914;2.254;2023-02-03T05:20:20;10.75;66.35
75961;SHT30;64644;48.914;2.254;2023-02-03T05:22:45;10.75;66.39
75961;SHT30;64644;48.914;2.254;2023-02-03T05:25:13;10.75;66.25
75961;SHT30;64644;48.914;2.254;2023-02-03T05:27:39;10.76;66.29
75961;SHT30;64644;48.914;2.254;2023-02-03T05:30:07;10.79;66.25
75961;SHT30;64644;48.914;2.254;2023-02-03T05:32:32;10.83;66.13
75961;SHT30;64644;48.914;2.254;2023-02-03T05:34:58;10.88;66.01
75961;SHT30;64644;48.914;2.254;2023-02-03T05:37:23;10.91;66.03
75961;SHT30;64644;48.914;2.254;2023-02-03T05:39:48;10.92;65.86
75961;SHT30;64644;48.914;2.254;2023-02-03T05:42:14;10.93;65.89
75961;SHT30;64644;48.914;2.254;2023-02-03T05:44:39;10.92;66.07
75961;SHT30;64644;48.914;2.254;2023-02-03T05:47:04;10.97;65.86
75961;SHT30;64644;48.914;2.254;2023-02-03T05:49:30;10.99;65.90
75961;SHT30;64644;48.914;2.254;2023-02-03T05:51:55;10.95;66.02
75961;SHT30;64644;48.914;2.254;2023-02-03T05:54:21;10.97;66.17
75961;SHT30;64644;48.914;2.254;2023-02-03T05:56:46;10.96;66.06
75961;SHT30;64644;48.914;2.254;2023-02-03T05:59:12;11.00;65.89
75961;SHT30;64644;48.914;2.254;2023-02-03T06:01:37;11.00;65.82
75961;SHT30;64644;48.914;2.254;2023-02-03T06:04:03;10.99;65.74
75961;SHT30;64644;48.914;2.254;2023-02-03T06:06:29;10.96;65.89
75961;SHT30;64644;48.914;2.254;2023-02-03T06:09:02;10.92;66.30
75961;SHT30;64644;48.914;2.254;2023-02-03T06:11:28;10.89;66.35
75961;SHT30;64644;48.914;2.254;2023-02-03T06:13:54;10.83;66.63
75961;SHT30;64644;48.914;2.254;2023-02-03T06:16:20;10.79;67.20
75961;SHT30;64644;48.914;2.254;2023-02-03T06:18:51;10.78;67.17
75961;SHT30;64644;48.914;2.254;2023-02-03T06:21:17;10.73;67.51
75961;SHT30;64644;48.914;2.254;2023-02-03T06:23:43;10.75;67.65
75961;SHT30;64644;48.914;2.254;2023-02-03T06:26:08;10.68;68.56
75961;SHT30;64644;48.914;2.254;2023-02-03T06:28:34;10.67;68.71
75961;SHT30;64644;48.914;2.254;2023-02-03T06:31:02;10.65;68.58
75961;SHT30;64644;48.914;2.254;2023-02-03T06:33:28;10.62;69.99
75961;SHT30;64644;48.914;2.254;2023-02-03T06:35:53;10.60;69.70
75961;SHT30;64644;48.914;2.254;2023-02-03T06:38:19;10.60;69.89
75961;SHT30;64644;48.914;2.254;2023-02-03T06:40:48;10.60;69.71
75961;SHT30;64644;48.914;2.254;2023-02-03T06:43:14;10.62;70.21
75961;SHT30;64644;48.914;2.254;2023-02-03T06:45:39;10.62;70.21
75961;SHT30;64644;48.914;2.254;2023-02-03T06:48:05;10.61;69.94
75961;SHT30;64644;48.914;2.254;2023-02-03T06:50:32;10.60;69.91
75961;SHT30;64644;48.914;2.254;2023-02-03T06:52:57;10.60;69.42
75961;SHT30;64644;48.914;2.254;2023-02-03T06:55:22;10.61;69.81
75961;SHT30;64644;48.914;2.254;2023-02-03T06:57:48;10.55;70.10
75961;SHT30;64644;48.914;2.254;2023-02-03T07:00:15;10.52;69.92
75961;SHT30;64644;48.914;2.254;2023-02-03T07:02:41;10.50;69.99
75961;SHT30;64644;48.914;2.254;2023-02-03T07:05:06;10.51;69.36
75961;SHT30;64644;48.914;2.254;2023-02-03T07:07:32;10.57;69.39
75961;SHT30;64644;48.914;2.254;2023-02-03T07:09:59;10.55;69.45
75961;SHT30;64644;48.914;2.254;2023-02-03T07:12:24;10.58;69.61
75961;SHT30;64644;48.914;2.254;2023-02-03T07:14:49;10.62;69.49
75961;SHT30;64644;48.914;2.254;2023-02-03T07:17:15;10.61;69.63
75961;SHT30;64644;48.914;2.254;2023-02-03T07:19:40;10.64;69.23
75961;SHT30;64644;48.914;2.254;2023-02-03T07:22:05;10.69;69.13
75961;SHT30;64644;48.914;2.254;2023-02-03T07:24:31;10.72;69.05
75961;SHT30;64644;48.914;2.254;2023-02-03T07:26:56;10.79;68.96
75961;SHT30;64644;48.914;2.254;2023-02-03T07:29:22;10.79;68.81
75961;SHT30;64644;48.914;2.254;2023-02-03T07:31:47;10.80;69.15
75961;SHT30;64644;48.914;2.254;2023-02-03T07:34:12;10.78;69.25
75961;SHT30;64644;48.914;2.254;2023-02-03T07:36:38;10.71;69.31
75961;SHT30;64644;48.914;2.254;2023-02-03T07:39:03;10.69;69.79
75961;SHT30;64644;48.914;2.254;2023-02-03T07:41:28;10.69;69.30
75961;SHT30;64644;48.914;2.254;2023-02-03T07:43:54;10.65;69.51
75961;SHT30;64644;48.914;2.254;2023-02-03T07:46:19;10.62;69.37
75961;SHT30;64644;48.914;2.254;2023-02-03T07:48:44;10.62;69.37
75961;SHT30;64644;48.914;2.254;2023-02-03T07:51:10;10.64;69.70
75961;SHT30;64644;48.914;2.254;2023-02-03T07:53:35;10.65;69.32
75961;SHT30;64644;48.914;2.254;2023-02-03T07:56:01;10.67;69.27
75961;SHT30;64644;48.914;2.254;2023-02-03T07:58:27;10.64;69.07
75961;SHT30;64644;48.914;2.254;2023-02-03T08:00:52;10.67;69.05
75961;SHT30;64644;48.914;2.254;2023-02-03T08:03:18;10.67;68.93
75961;SHT30;64644;48.914;2.254;2023-02-03T08:05:43;10.69;68.79
75961;SHT30;64644;48.914;2.254;2023-02-03T08:08:08;10.75;68.78
75961;SHT30;64644;48.914;2.254;2023-02-03T08:10:34;10.76;68.59
75961;SHT30;64644;48.914;2.254;2023-02-03T08:12:59;10.82;68.63
75961;SHT30;64644;48.914;2.254;2023-02-03T08:15:24;10.86;68.47
75961;SHT30;64644;48.914;2.254;2023-02-03T08:17:50;10.89;68.43
75961;SHT30;64644;48.914;2.254;2023-02-03T08:20:16;10.96;68.57
75961;SHT30;64644;48.914;2.254;2023-02-03T08:22:42;11.02;68.28
75961;SHT30;64644;48.914;2.254;2023-02-03T08:25:08;11.05;68.15
75961;SHT30;64644;48.914;2.254;2023-02-03T08:27:33;11.06;68.15
75961;SHT30;64644;48.914;2.254;2023-02-03T08:29:59;11.09;68.04
75961;SHT30;64644;48.914;2.254;2023-02-03T08:32:24;11.12;68.24
75961;SHT30;64644;48.914;2.254;2023-02-03T08:34:50;11.14;68.14
75961;SHT30;64644;48.914;2.254;2023-02-03T08:37:18;11.19;68.43
75961;SHT30;64644;48.914;2.254;2023-02-03T08:39:44;11.20;68.35
75961;SHT30;64644;48.914;2.254;2023-02-03T08:42:10;11.19;68.36
75961;SHT30;64644;48.914;2.254;2023-02-03T08:44:36;11.22;68.34
75961;SHT30;64644;48.914;2.254;2023-02-03T08:47:03;11.14;68.39
75961;SHT30;64644;48.914;2.254;2023-02-03T08:49:29;11.16;68.44
75961;SHT30;64644;48.914;2.254;2023-02-03T08:51:56;11.16;68.58
75961;SHT30;64644;48.914;2.254;2023-02-03T08:54:21;11.16;68.55
75961;SHT30;64644;48.914;2.254;2023-02-03T08:56:47;11.16;68.53
75961;SHT30;64644;48.914;2.254;2023-02-03T08:59:13;11.16;68.69
75961;SHT30;64644;48.914;2.254;2023-02-03T09:01:39;11.17;68.87
75961;SHT30;64644;48.914;2.254;2023-02-03T09:04:06;11.16;69.27
75961;SHT30;64644;48.914;2.254;2023-02-03T09:06:33;11.14;69.88
75961;SHT30;64644;48.914;2.254;2023-02-03T09:08:59;11.16;69.76
75961;SHT30;64644;48.914;2.254;2023-02-03T09:11:24;11.16;70.57
75961;SHT30;64644;48.914;2.254;2023-02-03T09:13:50;11.16;70.28
75961;SHT30;64644;48.914;2.254;2023-02-03T09:16:18;11.17;70.04
75961;SHT30;64644;48.914;2.254;2023-02-03T09:18:44;11.20;69.92
75961;SHT30;64644;48.914;2.254;2023-02-03T09:21:11;11.24;70.03
75961;SHT30;64644;48.914;2.254;2023-02-03T09:23:38;11.23;70.60
75961;SHT30;64644;48.914;2.254;2023-02-03T09:26:08;11.20;70.84
75961;SHT30;64644;48.914;2.254;2023-02-03T09:28:34;11.22;71.33
75961;SHT30;64644;48.914;2.254;2023-02-03T09:31:11;11.20;70.70
75961;SHT30;64644;48.914;2.254;2023-02-03T09:33:37;11.23;70.89
75961;SHT30;64644;48.914;2.254;2023-02-03T09:36:04;11.27;70.70
75961;SHT30;64644;48.914;2.254;2023-02-03T09:38:30;11.31;70.48
75961;SHT30;64644;48.914;2.254;2023-02-03T09:41:11;11.28;70.36
75961;SHT30;64644;48.914;2.254;2023-02-03T09:43:53;11.27;70.65
75961;SHT30;64644;48.914;2.254;2023-02-03T09:46:25;11.34;70.52
75961;SHT30;64644;48.914;2.254;2023-02-03T09:49:16;11.41;70.32
75961;SHT30;64644;48.914;2.254;2023-02-03T09:51:53;11.40;70.78
75961;SHT30;64644;48.914;2.254;2023-02-03T09:57:25;11.41;70.76
75961;SHT30;64644;48.914;2.254;2023-02-03T09:59:53;11.45;70.83
75961;SHT30;64644;48.914;2.254;2023-02-03T10:05:10;11.55;70.49
75961;SHT30;64644;48.914;2.254;2023-02-03T10:07:50;11.55;70.56
75961;SHT30;64644;48.914;2.254;2023-02-03T10:10:50;11.57;70.31
75961;SHT30;64644;48.914;2.254;2023-02-03T10:16:51;11.58;70.05
75961;SHT30;64644;48.914;2.254;2023-02-03T10:19:25;11.57;70.03
75961;SHT30;64644;48.914;2.254;2023-02-03T10:21:54;11.61;70.15
75961;SHT30;64644;48.914;2.254;2023-02-03T10:24:26;11.65;70.02
75961;SHT30;64644;48.914;2.254;2023-02-03T10:26:54;11.68;69.91
75961;SHT30;64644;48.914;2.254;2023-02-03T10:29:41;11.74;69.77
75961;SHT30;64644;48.914;2.254;2023-02-03T10:32:12;11.76;69.69
75961;SHT30;64644;48.914;2.254;2023-02-03T10:34:38;11.72;69.64
75961;SHT30;64644;48.914;2.254;2023-02-03T10:37:27;11.72;69.65
75961;SHT30;64644;48.914;2.254;2023-02-03T10:39:54;11.71;69.61
75961;SHT30;64644;48.914;2.254;2023-02-03T10:42:21;11.72;69.60
75961;SHT30;64644;48.914;2.254;2023-02-03T10:44:57;11.75;69.57
75961;SHT30;64644;48.914;2.254;2023-02-03T10:47:31;11.75;69.88
75961;SHT30;64644;48.914;2.254;2023-02-03T10:50:01;11.78;69.89
75961;SHT30;64644;48.914;2.254;2023-02-03T10:52:32;11.85;69.76
75961;SHT30;64644;48.914;2.254;2023-02-03T10:55:33;11.87;69.97
75961;SHT30;64644;48.914;2.254;2023-02-03T10:57:52;11.87;69.69
75961;SHT30;64644;48.914;2.254;2023-02-03T11:00:30;11.89;69.76
75961;SHT30;64644;48.914;2.254;2023-02-03T11:03:05;11.87;69.72
75961;SHT30;64644;48.914;2.254;2023-02-03T11:05:32;11.90;69.63
75961;SHT30;64644;48.914;2.254;2023-02-03T11:07:57;11.89;69.62
75961;SHT30;64644;48.914;2.254;2023-02-03T11:10:37;11.92;69.65
75961;SHT30;64644;48.914;2.254;2023-02-03T11:21:07;11.85;71.12
75961;SHT30;64644;48.914;2.254;2023-02-03T11:23:33;11.85;71.77
75961;SHT30;64644;48.914;2.254;2023-02-03T11:26:09;11.85;72.13
75961;SHT30;64644;48.914;2.254;2023-02-03T11:28:35;11.82;71.95
75961;SHT30;64644;48.914;2.254;2023-02-03T11:31:00;11.86;71.82
75961;SHT30;64644;48.914;2.254;2023-02-03T11:33:26;11.89;73.86
75961;SHT30;64644;48.914;2.254;2023-02-03T11:35:57;11.87;72.34
75961;SHT30;64644;48.914;2.254;2023-02-03T11:38:31;11.90;72.32
75961;SHT30;64644;48.914;2.254;2023-02-03T11:41:00;11.86;72.16
75961;SHT30;64644;48.914;2.254;2023-02-03T11:43:26;11.90;71.56
75961;SHT30;64644;48.914;2.254;2023-02-03T11:46:04;11.89;71.41
75961;SHT30;64644;48.914;2.254;2023-02-03T11:48:36;11.93;71.23
75961;SHT30;64644;48.914;2.254;2023-02-03T11:54:01;11.90;71.11
75961;SHT30;64644;48.914;2.254;2023-02-03T12:01:55;12.07;70.69
75961;SHT30;64644;48.914;2.254;2023-02-03T12:04:57;12.09;70.57
75961;SHT30;64644;48.914;2.254;2023-02-03T12:07:51;12.16;70.46
75961;SHT30;64644;48.914;2.254;2023-02-03T12:21:42;12.17;70.12
75961;SHT30;64644;48.914;2.254;2023-02-03T12:24:33;12.19;69.94
75961;SHT30;64644;48.914;2.254;2023-02-03T12:29:57;12.30;69.72
75961;SHT30;64644;48.914;2.254;2023-02-03T12:32:37;12.31;69.57
75961;SHT30;64644;48.914;2.254;2023-02-03T12:35:31;12.34;69.62
75961;SHT30;64644;48.914;2.254;2023-02-03T12:38:06;12.36;69.57
75961;SHT30;64644;48.914;2.254;2023-02-03T12:40:53;12.40;69.35
75961;SHT30;64644;48.914;2.254;2023-02-03T12:43:36;12.44;69.30
75961;SHT30;64644;48.914;2.254;2023-02-03T12:46:16;12.47;69.23
75961;SHT30;64644;48.914;2.254;2023-02-03T12:51:53;12.41;69.21
75961;SHT30;64644;48.914;2.254;2023-02-03T12:54:46;12.48;69.17
75961;SHT30;64644;48.914;2.254;2023-02-03T12:57:39;12.48;69.22
75961;SHT30;64644;48.914;2.254;2023-02-03T13:00:17;12.49;69.19
75961;SHT30;64644;48.914;2.254;2023-02-03T13:02:53;12.54;69.21
75961;SHT30;64644;48.914;2.254;2023-02-03T13:05:31;12.55;69.11
75961;SHT30;64644;48.914;2.254;2023-02-03T13:11:05;12.65;68.94
75961;SHT30;64644;48.914;2.254;2023-02-03T13:13:39;12.61;68.81
75961;SHT30;64644;48.914;2.254;2023-02-03T13:16:06;12.62;68.94
75961;SHT30;64644;48.914;2.254;2023-02-03T13:18:46;12.65;68.95
75961;SHT30;64644;48.914;2.254;2023-02-03T13:21:14;12.66;69.00
75961;SHT30;64644;48.914;2.254;2023-02-03T13:23:43;12.66;69.05
75961;SHT30;64644;48.914;2.254;2023-02-03T13:44:42;12.76;69.19
75961;SHT30;64644;48.914;2.254;2023-02-03T13:47:23;12.72;69.47
75961;SHT30;64644;48.914;2.254;2023-02-03T13:49:55;12.74;69.30
75961;SHT30;64644;48.914;2.254;2023-02-03T13:52:27;12.72;69.52
75961;SHT30;64644;48.914;2.254;2023-02-03T13:54:54;12.74;69.71
75961;SHT30;64644;48.914;2.254;2023-02-03T13:57:23;12.72;69.70
75961;SHT30;64644;48.914;2.254;2023-02-03T13:59:52;12.78;69.65
75961;SHT30;64644;48.914;2.254;2023-02-03T14:12:38;12.95;69.16
75961;SHT30;64644;48.914;2.254;2023-02-03T14:22:58;12.95;69.06
75961;SHT30;64644;48.914;2.254;2023-02-03T14:25:26;12.96;69.07
75961;SHT30;64644;48.914;2.254;2023-02-03T14:28:04;12.97;69.04
75961;SHT30;64644;48.914;2.254;2023-02-03T14:30:30;13.00;68.91
75961;SHT30;64644;48.914;2.254;2023-02-03T14:33:01;13.04;68.84
75961;SHT30;64644;48.914;2.254;2023-02-03T14:35:37;13.03;68.86
75961;SHT30;64644;48.914;2.254;2023-02-03T14:38:13;13.06;68.88
75961;SHT30;64644;48.914;2.254;2023-02-03T14:40:56;13.09;68.85
75961;SHT30;64644;48.914;2.254;2023-02-03T14:43:41;13.09;68.82
75961;SHT30;64644;48.914;2.254;2023-02-03T14:46:20;13.07;68.83
75961;SHT30;64644;48.914;2.254;2023-02-03T14:55:18;13.07;68.89
75961;SHT30;64644;48.914;2.254;2023-02-03T14:57:49;13.03;68.87
75961;SHT30;64644;48.914;2.254;2023-02-03T15:05:39;13.00;69.14
75961;SHT30;64644;48.914;2.254;2023-02-03T15:08:35;12.97;69.12
75961;SHT30;64644;48.914;2.254;2023-02-03T15:11:23;12.99;69.15
75961;SHT30;64644;48.914;2.254;2023-02-03T15:13:49;13.04;69.07
75961;SHT30;64644;48.914;2.254;2023-02-03T15:16:18;13.04;69.19
75961;SHT30;64644;48.914;2.254;2023-02-03T15:18:44;13.04;69.11
75961;SHT30;64644;48.914;2.254;2023-02-03T15:21:18;13.03;68.98
75961;SHT30;64644;48.914;2.254;2023-02-03T15:23:44;13.06;69.06
75961;SHT30;64644;48.914;2.254;2023-02-03T15:26:15;13.07;69.14
75961;SHT30;64644;48.914;2.254;2023-02-03T15:28:42;13.04;69.01
75961;SHT30;64644;48.914;2.254;2023-02-03T15:31:18;13.06;68.91
75961;SHT30;64644;48.914;2.254;2023-02-03T15:33:49;13.09;68.85
75961;SHT30;64644;48.914;2.254;2023-02-03T15:36:23;13.09;68.87
75961;SHT30;64644;48.914;2.254;2023-02-03T15:38:59;13.10;68.73
75961;SHT30;64644;48.914;2.254;2023-02-03T15:41:29;13.11;68.78
75961;SHT30;64644;48.914;2.254;2023-02-03T15:43:58;13.10;68.84
75961;SHT30;64644;48.914;2.254;2023-02-03T15:48:58;13.10;68.73
75961;SHT30;64644;48.914;2.254;2023-02-03T15:51:48;13.10;68.77
75961;SHT30;64644;48.914;2.254;2023-02-03T15:54:20;13.11;68.70
75961;SHT30;64644;48.914;2.254;2023-02-03T15:56:58;13.14;68.71
75961;SHT30;64644;48.914;2.254;2023-02-03T15:59:31;13.19;68.66
75961;SHT30;64644;48.914;2.254;2023-02-03T16:02:21;13.14;68.56
75961;SHT30;64644;48.914;2.254;2023-02-03T16:04:45;13.17;68.47
75961;SHT30;64644;48.914;2.254;2023-02-03T16:07:31;13.16;68.62
75961;SHT30;64644;48.914;2.254;2023-02-03T16:09:58;13.20;68.41
75961;SHT30;64644;48.914;2.254;2023-02-03T16:12:28;13.19;68.53
75961;SHT30;64644;48.914;2.254;2023-02-03T16:14:56;13.21;68.20
75961;SHT30;64644;48.914;2.254;2023-02-03T16:17:35;13.20;68.27
75961;SHT30;64644;48.914;2.254;2023-02-03T16:20:23;13.24;68.11
75961;SHT30;64644;48.914;2.254;2023-02-03T16:23:20;13.24;68.10
75961;SHT30;64644;48.914;2.254;2023-02-03T16:28:30;13.21;68.58
75961;SHT30;64644;48.914;2.254;2023-02-03T16:31:18;13.21;68.28
75961;SHT30;64644;48.914;2.254;2023-02-03T16:34:17;13.21;68.13
75961;SHT30;64644;48.914;2.254;2023-02-03T16:37:10;13.23;68.16
75961;SHT30;64644;48.914;2.254;2023-02-03T16:39:54;13.24;68.12
75961;SHT30;64644;48.914;2.254;2023-02-03T16:42:39;13.21;68.29
75961;SHT30;64644;48.914;2.254;2023-02-03T16:45:24;13.20;68.11
75961;SHT30;64644;48.914;2.254;2023-02-03T16:48:10;13.20;68.19
75961;SHT30;64644;48.914;2.254;2023-02-03T16:50:54;13.19;68.15
75961;SHT30;64644;48.914;2.254;2023-02-03T16:53:25;13.19;68.28
75961;SHT30;64644;48.914;2.254;2023-02-03T16:55:53;13.17;68.29
75961;SHT30;64644;48.914;2.254;2023-02-03T16:58:19;13.16;68.13
75961;SHT30;64644;48.914;2.254;2023-02-03T17:00:46;13.17;68.33
75961;SHT30;64644;48.914;2.254;2023-02-03T17:03:14;13.19;68.11
75961;SHT30;64644;48.914;2.254;2023-02-03T17:05:41;13.19;68.08
75961;SHT30;64644;48.914;2.254;2023-02-03T17:08:07;13.19;68.36
75961;SHT30;64644;48.914;2.254;2023-02-03T17:10:33;13.20;68.19
75961;SHT30;64644;48.914;2.254;2023-02-03T17:12:59;13.19;68.06
75961;SHT30;64644;48.914;2.254;2023-02-03T17:15:26;13.21;68.03
75961;SHT30;64644;48.914;2.254;2023-02-03T17:17:51;13.19;68.18
75961;SHT30;64644;48.914;2.254;2023-02-03T17:20:17;13.16;68.09
75961;SHT30;64644;48.914;2.254;2023-02-03T17:22:42;13.17;68.09
75961;SHT30;64644;48.914;2.254;2023-02-03T17:25:08;13.16;68.15
75961;SHT30;64644;48.914;2.254;2023-02-03T17:27:33;13.16;68.07
75961;SHT30;64644;48.914;2.254;2023-02-03T17:30:02;13.14;68.03
75961;SHT30;64644;48.914;2.254;2023-02-03T17:32:27;13.13;67.96
75961;SHT30;64644;48.914;2.254;2023-02-03T17:34:53;13.11;67.92
75961;SHT30;64644;48.914;2.254;2023-02-03T17:37:18;13.09;68.11
75961;SHT30;64644;48.914;2.254;2023-02-03T17:39:43;13.07;68.08
75961;SHT30;64644;48.914;2.254;2023-02-03T17:42:10;13.06;68.13
75961;SHT30;64644;48.914;2.254;2023-02-03T17:44:35;13.03;68.09
75961;SHT30;64644;48.914;2.254;2023-02-03T17:47:01;13.03;68.12
75961;SHT30;64644;48.914;2.254;2023-02-03T17:49:27;13.02;68.12